Time;durP1;ratioP1;P1;durP2;ratioP2;P2;SDS_P1;SDS_P2;PMS_P1;PMS_P2;Temp;Humidity;BMP_temperature;BMP_pressure;BME280_temperature;BME280_humidity;BME280_pressure;Samples;Min_cycle;Max_cycle;Signal;HPM_P1;HPM_P2
2023/02/01 00:01:35;;;;;;;5.75;1.52;;;8.50;85.40;;;;;;6123961;23;20056;-83
2023/02/01 00:04:01;;;;;;;5.47;1.45;;;8.50;85.40;;;;;;6099007;23;20026;-83
2023/02/01 00:06:26;;;;;;;3.45;1.30;;;8.50;85.40;;;;;;6124621;23;20001;-84
2023/02/01 00:08:53;;;;;;;4.88;1.70;;;8.50;85.90;;;;;;6124774;23;20006;-83
2023/02/01 00:11:19;;;;;;;5.25;1.60;;;8.50;85.40;;;;;;6163776;22;20435;-83
2023/02/01 00:13:44;;;;;;;4.93;1.80;;;8.50;85.40;;;;;;6247277;23;19996;-84
2023/02/01 00:16:16;;;;;;;4.50;1.60;;;8.50;85.30;;;;;;6248642;22;20031;-84
2023/02/01 00:18:42;;;;;;;4.72;1.63;;;8.50;85.80;;;;;;6245772;23;20008;-84
2023/02/01 00:21:09;;;;;;;5.45;1.65;;;8.50;85.30;;;;;;6246269;22;20004;-84
2023/02/01 00:23:36;;;;;;;4.57;1.65;;;8.60;85.40;;;;;;6247545;23;20004;-84
2023/02/01 00:26:03;;;;;;;5.88;1.60;;;8.60;85.50;;;;;;6251507;23;20000;-84
2023/02/01 00:28:29;;;;;;;3.28;1.27;;;8.50;85.40;;;;;;6254475;22;20023;-84
2023/02/01 00:31:03;;;;;;;4.45;1.50;;;8.50;85.40;;;;;;6251720;22;20008;-84
2023/02/01 00:33:29;;;;;;;5.18;1.60;;;8.60;85.40;;;;;;6253232;23;20005;-85
2023/02/01 00:36:00;;;;;;;4.07;1.42;;;8.50;85.40;;;;;;6253444;22;20000;-84
2023/02/01 00:38:27;;;;;;;6.38;1.40;;;8.50;85.40;;;;;;6253274;22;20023;-84
2023/02/01 00:40:52;;;;;;;3.25;1.38;;;8.60;85.40;;;;;;6253265;22;20003;-84
2023/02/01 00:43:17;;;;;;;4.50;1.40;;;8.50;85.40;;;;;;6251388;23;20011;-84
2023/02/01 00:45:44;;;;;;;4.13;1.65;;;8.50;85.40;;;;;;6250802;23;20015;-84
2023/02/01 00:48:10;;;;;;;3.80;1.60;;;8.50;85.40;;;;;;6251118;23;20020;-84
2023/02/01 00:50:35;;;;;;;5.03;1.52;;;8.50;85.40;;;;;;6250975;22;20438;-84
2023/02/01 00:53:01;;;;;;;4.85;1.58;;;8.50;85.50;;;;;;6252174;22;19996;-84
2023/02/01 00:55:26;;;;;;;5.43;1.40;;;8.50;85.50;;;;;;6252093;22;20026;-84
2023/02/01 00:57:52;;;;;;;4.93;1.77;;;8.50;85.40;;;;;;6252038;22;20435;-84
2023/02/01 01:00:18;;;;;;;5.82;1.55;;;8.60;85.50;;;;;;6249278;22;20003;-84
2023/02/01 01:02:43;;;;;;;2.92;1.30;;;8.50;85.40;;;;;;6249458;23;20012;-84
2023/02/01 01:05:09;;;;;;;4.55;1.40;;;8.50;85.40;;;;;;6249170;23;20370;-81
2023/02/01 01:07:34;;;;;;;6.45;1.40;;;8.60;85.50;;;;;;6245529;23;20008;-84
2023/02/01 01:10:00;;;;;;;3.97;1.40;;;8.50;85.40;;;;;;6250330;22;20004;-84
2023/02/01 01:12:26;;;;;;;4.80;1.67;;;8.50;85.40;;;;;;6249894;22;20015;-84
2023/02/01 01:14:51;;;;;;;5.85;2.15;;;8.50;85.50;;;;;;6253190;23;20004;-84
2023/02/01 01:17:17;;;;;;;6.97;1.77;;;8.50;85.50;;;;;;6253689;22;20004;-84
2023/02/01 01:19:42;;;;;;;2.88;1.38;;;8.50;85.50;;;;;;6254255;22;20004;-85
2023/02/01 01:22:08;;;;;;;3.95;1.30;;;8.50;85.50;;;;;;6252332;22;20010;-84
2023/02/01 01:24:33;;;;;;;3.47;1.33;;;8.50;86.00;;;;;;6251679;23;20019;-84
2023/02/01 01:26:59;;;;;;;3.30;1.30;;;8.50;85.50;;;;;;6251861;23;20030;-84
2023/02/01 01:29:24;;;;;;;4.65;1.30;;;8.60;85.50;;;;;;6253492;22;20000;-84
2023/02/01 01:31:50;;;;;;;4.68;1.45;;;8.60;85.50;;;;;;6251038;22;20054;-84
2023/02/01 01:34:15;;;;;;;4.35;1.48;;;8.60;85.50;;;;;;6250655;23;20001;-84
2023/02/01 01:36:41;;;;;;;3.92;1.33;;;8.60;85.50;;;;;;6251898;22;20071;-84
2023/02/01 01:39:07;;;;;;;4.75;1.40;;;8.60;85.50;;;;;;6252231;22;20386;-84
2023/02/01 01:41:33;;;;;;;5.00;1.60;;;8.60;85.50;;;;;;6249975;22;20431;-84
2023/02/01 01:44:02;;;;;;;4.22;1.50;;;8.50;85.50;;;;;;6247472;23;20054;-84
2023/02/01 01:46:40;;;;;;;4.50;1.30;;;8.50;85.40;;;;;;6244750;23;20085;-84
2023/02/01 01:49:09;;;;;;;2.60;1.15;;;8.60;85.50;;;;;;6249308;23;20083;-84
2023/02/01 01:51:43;;;;;;;3.63;1.40;;;8.50;85.50;;;;;;6250916;22;20335;-84
2023/02/01 01:54:32;;;;;;;3.60;1.20;;;8.60;85.60;;;;;;6250438;22;19996;-83
2023/02/01 01:57:05;;;;;;;3.85;1.45;;;8.50;85.50;;;;;;6244585;23;20028;-83
2023/02/01 01:59:34;;;;;;;3.50;1.30;;;8.50;85.50;;;;;;6248548;23;20127;-84
2023/02/01 02:02:00;;;;;;;4.68;1.48;;;8.50;85.50;;;;;;6250139;22;20011;-84
2023/02/01 02:04:26;;;;;;;3.38;1.60;;;8.50;85.50;;;;;;6250025;22;20012;-84
2023/02/01 02:07:00;;;;;;;5.63;1.38;;;8.50;85.50;;;;;;6250461;22;20023;-84
2023/02/01 02:09:26;;;;;;;3.17;1.10;;;8.50;85.50;;;;;;6248413;23;20000;-82
2023/02/01 02:11:51;;;;;;;3.95;1.30;;;8.60;85.50;;;;;;6165705;22;20063;-84
2023/02/01 02:14:21;;;;;;;3.45;1.23;;;8.50;85.50;;;;;;6099455;23;20002;-83
2023/02/01 02:16:58;;;;;;;5.45;1.33;;;8.50;85.50;;;;;;6098945;23;20002;-84
2023/02/01 02:20:01;;;;;;;3.97;1.20;;;8.50;85.50;;;;;;6123312;23;20024;-83
2023/02/01 02:23:02;;;;;;;4.13;1.25;;;8.50;85.50;;;;;;6097980;23;20002;-83
2023/02/01 02:26:08;;;;;;;5.63;1.63;;;8.50;85.60;;;;;;6098636;23;20006;-84
2023/02/01 02:29:05;;;;;;;5.22;1.35;;;8.50;85.50;;;;;;6099026;23;20017;-84
2023/02/01 02:31:30;;;;;;;4.20;1.30;;;8.50;85.50;;;;;;6125110;23;20002;-83
2023/02/01 02:34:05;;;;;;;4.90;1.50;;;8.50;85.60;;;;;;6096163;23;20013;-84
2023/02/01 02:36:48;;;;;;;4.10;1.33;;;8.50;85.50;;;;;;6097321;23;20025;-84
2023/02/01 02:39:44;;;;;;;3.70;1.20;;;8.50;85.60;;;;;;6097631;23;20352;-84
2023/02/01 02:48:09;;;;;;;3.42;1.20;;;8.50;85.60;;;;;;6123826;23;20017;-83
2023/02/01 03:04:57;;;;;;;4.95;1.73;;;8.50;85.60;;;;;;6123238;23;20076;-83
2023/02/01 03:07:49;;;;;;;5.90;1.80;;;8.60;85.60;;;;;;6097823;23;20130;-83
2023/02/01 03:10:24;;;;;;;4.95;2.05;;;8.50;86.00;;;;;;6098129;23;20010;-83
2023/02/01 03:12:56;;;;;;;6.65;2.30;;;8.50;85.60;;;;;;6124338;23;20006;-83
2023/02/01 03:15:47;;;;;;;7.70;2.03;;;8.60;85.60;;;;;;6098331;23;20452;-84
2023/02/01 03:18:18;;;;;;;9.13;2.33;;;8.60;85.60;;;;;;6125581;23;19998;-83
2023/02/01 03:20:49;;;;;;;7.95;2.22;;;8.50;85.50;;;;;;6124948;23;20026;-84
2023/02/01 03:23:18;;;;;;;6.40;1.75;;;8.60;85.60;;;;;;6125415;23;20063;-83
2023/02/01 03:25:46;;;;;;;5.07;1.80;;;8.60;85.60;;;;;;6123933;23;20009;-84
2023/02/01 03:28:12;;;;;;;6.18;1.88;;;8.50;85.50;;;;;;6098145;23;20440;-84
2023/02/01 03:30:41;;;;;;;6.15;1.95;;;8.50;85.50;;;;;;6123784;23;20002;-83
2023/02/01 03:33:23;;;;;;;8.25;2.22;;;8.50;85.60;;;;;;6125022;23;20025;-84
2023/02/01 03:36:14;;;;;;;6.82;2.38;;;8.60;85.60;;;;;;6122519;23;20002;-83
2023/02/01 03:38:48;;;;;;;;;;;8.50;85.60;;;;;;6097936;23;20052;-84
2023/02/01 03:41:35;;;;;;;6.88;2.00;;;8.50;85.60;;;;;;6124013;23;19950;-83
2023/02/01 03:44:05;;;;;;;5.40;1.75;;;8.60;85.60;;;;;;6099714;23;20388;-83
2023/02/01 03:46:36;;;;;;;7.38;2.35;;;8.60;85.60;;;;;;6126722;23;20026;-83
2023/02/01 03:49:06;;;;;;;6.50;1.90;;;8.60;85.60;;;;;;6129768;23;20013;-83
2023/02/01 03:51:32;;;;;;;6.63;2.10;;;8.50;85.60;;;;;;6101824;23;20052;-83
2023/02/01 03:53:59;;;;;;;5.43;1.92;;;8.50;85.50;;;;;;6124343;23;19995;-83
2023/02/01 03:56:28;;;;;;;5.75;1.80;;;8.50;85.50;;;;;;6103281;23;20006;-83
2023/02/01 03:58:59;;;;;;;5.38;1.85;;;8.60;85.50;;;;;;6128791;23;20006;-84
2023/02/01 04:01:27;;;;;;;6.65;1.90;;;8.60;85.60;;;;;;6102356;23;20006;-83
2023/02/01 04:03:53;;;;;;;6.35;1.90;;;8.60;85.60;;;;;;6129024;23;20002;-83
2023/02/01 04:06:18;;;;;;;6.30;1.70;;;8.50;85.50;;;;;;6127882;23;20458;-83
2023/02/01 04:08:44;;;;;;;6.25;1.90;;;8.50;85.60;;;;;;6100978;23;20068;-83
2023/02/01 04:11:09;;;;;;;5.07;1.88;;;8.50;85.50;;;;;;6151143;22;20378;-84
2023/02/01 04:13:35;;;;;;;5.07;2.03;;;8.50;85.50;;;;;;6251104;23;19996;-84
2023/02/01 04:16:00;;;;;;;6.40;1.95;;;8.50;85.50;;;;;;6250830;23;20027;-84
2023/02/01 04:18:26;;;;;;;4.57;1.70;;;8.50;85.50;;;;;;6252115;22;20031;-81
2023/02/01 04:20:51;;;;;;;6.20;1.83;;;8.50;85.50;;;;;;6249873;22;20000;-84
2023/02/01 04:23:17;;;;;;;6.40;2.10;;;8.60;85.60;;;;;;6249920;23;20004;-84
2023/02/01 04:25:42;;;;;;;6.10;1.70;;;8.50;85.50;;;;;;6249558;23;20055;-84
2023/02/01 04:28:08;;;;;;;5.10;1.80;;;8.50;85.50;;;;;;6251640;22;20024;-84
2023/02/01 04:30:34;;;;;;;6.68;1.80;;;8.50;85.50;;;;;;6251089;22;20004;-83
2023/02/01 04:32:59;;;;;;;6.13;1.90;;;8.60;85.50;;;;;;6249273;23;20007;-83
2023/02/01 04:35:25;;;;;;;6.15;2.30;;;8.60;85.50;;;;;;6248414;22;20544;-78
2023/02/01 04:37:50;;;;;;;5.50;1.80;;;8.50;85.50;;;;;;6242343;23;20030;-82
2023/02/01 04:40:16;;;;;;;5.80;1.83;;;8.60;85.50;;;;;;6243909;22;20063;-81
2023/02/01 04:42:42;;;;;;;4.80;1.85;;;8.60;85.50;;;;;;6246011;22;20028;-80
2023/02/01 04:45:08;;;;;;;4.45;1.80;;;8.60;85.60;;;;;;6244534;23;20008;-81
2023/02/01 04:47:34;;;;;;;6.65;1.70;;;8.50;85.50;;;;;;6240578;23;20095;-80
2023/02/01 04:49:59;;;;;;;7.00;1.58;;;8.50;85.50;;;;;;6244715;22;20034;-80
2023/02/01 04:52:25;;;;;;;5.78;1.92;;;8.60;85.60;;;;;;6244664;22;20004;-80
2023/02/01 04:54:51;;;;;;;8.35;2.17;;;8.50;85.50;;;;;;6244290;22;20493;-81
2023/02/01 04:57:16;;;;;;;7.15;1.95;;;8.50;86.00;;;;;;6242677;23;20066;-80
2023/02/01 04:59:42;;;;;;;6.22;1.90;;;8.50;85.50;;;;;;6243879;23;20007;-80
2023/02/01 05:02:07;;;;;;;6.28;1.98;;;8.60;85.50;;;;;;6243876;22;20435;-81
2023/02/01 05:04:33;;;;;;;4.78;1.52;;;8.60;85.60;;;;;;6243901;22;20075;-80
2023/02/01 05:06:58;;;;;;;5.78;1.67;;;8.60;85.50;;;;;;6243342;22;20316;-80
2023/02/01 05:09:24;;;;;;;5.40;1.63;;;8.50;85.50;;;;;;6243670;22;20005;-80
2023/02/01 05:14:33;;;;;;;3.85;1.35;;;8.60;85.50;;;;;;6241618;23;20553;-79
2023/02/01 05:16:59;;;;;;;5.97;1.92;;;8.60;85.50;;;;;;6241564;23;20004;-82
2023/02/01 05:19:24;;;;;;;5.38;1.73;;;8.50;85.50;;;;;;6242030;23;20008;-81
2023/02/01 05:21:50;;;;;;;5.22;1.80;;;8.60;85.50;;;;;;6243441;22;20015;-81
2023/02/01 05:24:21;;;;;;;5.20;1.77;;;8.50;85.50;;;;;;6241153;23;20203;-82
2023/02/01 05:26:48;;;;;;;4.60;2.13;;;8.60;85.50;;;;;;6242649;23;20363;-80
2023/02/01 05:29:14;;;;;;;6.43;1.60;;;8.50;85.50;;;;;;6244177;22;20016;-80
2023/02/01 05:31:40;;;;;;;5.75;1.90;;;8.60;85.60;;;;;;6242120;22;20766;-80
2023/02/01 05:34:06;;;;;;;5.82;1.67;;;8.60;85.60;;;;;;6241272;23;20055;-82
2023/02/01 05:36:32;;;;;;;5.00;1.65;;;8.50;85.50;;;;;;6242377;22;20074;-79
2023/02/01 05:38:57;;;;;;;5.28;1.52;;;8.50;85.50;;;;;;6243655;22;20001;-80
2023/02/01 05:41:23;;;;;;;6.30;1.92;;;8.60;85.60;;;;;;6243677;22;20050;-82
2023/02/01 05:43:48;;;;;;;5.65;1.70;;;8.50;85.50;;;;;;6242896;23;20001;-78
2023/02/01 05:46:14;;;;;;;5.63;1.50;;;8.50;85.50;;;;;;6242073;23;20071;-81
2023/02/01 05:48:43;;;;;;;6.85;1.80;;;8.50;85.50;;;;;;6242609;23;20004;-81
2023/02/01 05:51:09;;;;;;;6.35;1.67;;;8.50;85.50;;;;;;6242040;22;20004;-79
2023/02/01 05:53:35;;;;;;;5.75;1.85;;;8.60;85.60;;;;;;6245013;22;20086;-80
2023/02/01 05:56:01;;;;;;;5.90;1.50;;;8.60;85.60;;;;;;6243635;22;20424;-80
2023/02/01 05:58:26;;;;;;;5.07;1.50;;;8.60;85.60;;;;;;6242544;23;20051;-79
2023/02/01 06:00:52;;;;;;;6.47;1.98;;;8.60;85.60;;;;;;6240409;22;20374;-78
2023/02/01 06:03:18;;;;;;;5.03;1.63;;;8.50;85.50;;;;;;6242098;22;20036;-78
2023/02/01 06:05:44;;;;;;;5.05;1.48;;;8.60;85.60;;;;;;6239709;23;20015;-78
2023/02/01 06:08:10;;;;;;;7.22;1.83;;;8.60;85.60;;;;;;6239163;23;20040;-78
2023/02/01 06:10:36;;;;;;;7.40;2.08;;;8.50;85.60;;;;;;6219618;23;20021;-78
2023/02/01 06:13:02;;;;;;;6.28;1.67;;;8.50;85.50;;;;;;6091182;23;20009;-80
2023/02/01 06:15:28;;;;;;;6.07;1.65;;;8.60;85.60;;;;;;6106748;23;20014;-80
2023/02/01 06:17:54;;;;;;;5.60;1.60;;;8.50;85.60;;;;;;6092123;23;20014;-79
2023/02/01 06:20:20;;;;;;;5.30;1.70;;;8.50;85.50;;;;;;6117605;23;20033;-79
2023/02/01 06:22:45;;;;;;;6.38;1.70;;;8.60;85.60;;;;;;6091150;23;20371;-77
2023/02/01 06:25:11;;;;;;;6.10;1.70;;;8.60;85.60;;;;;;6090742;23;20037;-78
2023/02/01 06:27:37;;;;;;;5.50;2.03;;;8.50;85.50;;;;;;6117656;23;20326;-78
2023/02/01 06:30:04;;;;;;;5.53;1.67;;;8.50;85.50;;;;;;6117596;23;20033;-79
2023/02/01 06:32:29;;;;;;;6.18;1.88;;;8.60;85.50;;;;;;6115999;23;20009;-79
2023/02/01 06:34:55;;;;;;;6.28;2.10;;;8.60;85.50;;;;;;6117488;23;20009;-79
2023/02/01 06:37:22;;;;;;;5.80;1.77;;;8.50;85.50;;;;;;6092273;23;20002;-78
2023/02/01 06:39:48;;;;;;;5.10;1.80;;;8.60;85.50;;;;;;6093184;23;20013;-78
2023/02/01 06:42:14;;;;;;;5.50;1.70;;;8.60;85.50;;;;;;6124236;23;20100;-78
2023/02/01 06:44:39;;;;;;;6.68;1.50;;;8.50;85.50;;;;;;6127272;23;20013;-79
2023/02/01 06:47:05;;;;;;;5.28;1.60;;;8.60;85.60;;;;;;6101987;23;20006;-78
2023/02/01 06:49:30;;;;;;;5.53;1.70;;;8.50;85.50;;;;;;6097037;23;20087;-77
2023/02/01 06:51:56;;;;;;;5.05;1.30;;;8.60;85.60;;;;;;6125247;23;20009;-80
2023/02/01 06:54:21;;;;;;;4.25;1.40;;;8.50;85.50;;;;;;6099907;23;20010;-80
2023/02/01 06:56:47;;;;;;;5.35;1.75;;;8.60;85.60;;;;;;6099760;23;20009;-78
2023/02/01 06:59:13;;;;;;;4.88;1.67;;;8.60;85.60;;;;;;6100056;23;20006;-79
2023/02/01 07:01:38;;;;;;;4.68;1.60;;;8.60;85.60;;;;;;6126878;23;20034;-83
2023/02/01 07:04:04;;;;;;;4.68;1.42;;;8.50;85.50;;;;;;6110670;23;20104;-80
2023/02/01 07:06:29;;;;;;;5.82;1.75;;;8.60;85.60;;;;;;6109921;23;20068;-80
2023/02/01 07:08:55;;;;;;;4.82;1.40;;;8.50;85.50;;;;;;6110770;23;20006;-79
2023/02/01 07:11:21;;;;;;;6.80;1.58;;;8.60;85.60;;;;;;6177617;22;20004;-80
2023/02/01 07:13:47;;;;;;;5.22;1.40;;;8.60;85.60;;;;;;6259549;23;20000;-82
2023/02/01 07:16:15;;;;;;;5.55;1.70;;;8.60;85.60;;;;;;6258420;23;20451;-80
2023/02/01 07:18:41;;;;;;;5.38;1.70;;;8.60;85.60;;;;;;6258845;23;20001;-80
2023/02/01 07:21:08;;;;;;;6.78;1.90;;;8.60;85.60;;;;;;6260308;22;20260;-79
2023/02/01 07:23:33;;;;;;;5.70;1.63;;;8.50;86.00;;;;;;6257840;23;20050;-80
2023/02/01 07:26:01;;;;;;;7.00;1.73;;;8.40;85.40;;;;;;6256890;23;20036;-80
2023/02/01 07:28:29;;;;;;;5.00;1.70;;;8.60;85.60;;;;;;6257318;23;20008;-79
2023/02/01 07:31:01;;;;;;;6.40;1.65;;;8.60;85.50;;;;;;6256780;22;20025;-80
2023/02/01 07:33:27;;;;;;;7.60;1.70;;;8.60;85.50;;;;;;6255831;23;20004;-80
2023/02/01 07:35:53;;;;;;;5.97;1.42;;;8.60;86.00;;;;;;6255275;23;20083;-79
2023/02/01 07:38:21;;;;;;;6.10;1.92;;;8.60;85.50;;;;;;6255868;23;20423;-80
2023/02/01 07:40:46;;;;;;;5.55;1.40;;;8.60;85.50;;;;;;6255013;22;20000;-79
2023/02/01 07:43:12;;;;;;;6.40;1.60;;;8.60;85.50;;;;;;6254854;23;20011;-78
2023/02/01 07:45:38;;;;;;;5.40;1.30;;;8.60;85.50;;;;;;6256186;22;20000;-80
2023/02/01 07:48:03;;;;;;;6.22;1.50;;;8.60;85.50;;;;;;6251343;23;20019;-81
2023/02/01 07:50:30;;;;;;;5.30;1.58;;;8.60;85.60;;;;;;6258833;22;20004;-81
2023/02/01 07:52:55;;;;;;;5.60;1.50;;;8.60;85.50;;;;;;6260178;23;20004;-79
2023/02/01 07:55:21;;;;;;;4.70;1.50;;;8.60;85.50;;;;;;6261624;22;20373;-80
2023/02/01 07:57:47;;;;;;;6.75;1.60;;;8.60;85.50;;;;;;6259760;23;20000;-79
2023/02/01 08:03:00;;;;;;;7.90;1.60;;;8.60;85.50;;;;;;6260296;23;20061;-79
2023/02/01 08:05:26;;;;;;;6.57;1.70;;;8.60;85.50;;;;;;6257071;23;20034;-79
2023/02/01 08:07:52;;;;;;;4.88;1.45;;;8.60;85.50;;;;;;6259017;22;20008;-80
2023/02/01 08:10:19;;;;;;;4.63;1.33;;;8.60;85.50;;;;;;6255068;22;20004;-78
2023/02/01 08:12:48;;;;;;;5.40;1.60;;;8.60;85.50;;;;;;6105781;23;20082;-79
2023/02/01 08:15:17;;;;;;;7.93;1.73;;;8.60;85.40;;;;;;6103697;23;20344;-80
2023/02/01 08:17:47;;;;;;;5.95;1.63;;;8.60;85.40;;;;;;6105771;23;20523;-80
2023/02/01 08:20:13;;;;;;;5.28;1.60;;;8.60;85.30;;;;;;6105649;23;20040;-80
2023/02/01 08:22:39;;;;;;;6.65;1.65;;;8.60;85.30;;;;;;6104591;23;20010;-77
2023/02/01 08:25:05;;;;;;;4.80;1.30;;;8.70;85.30;;;;;;6104304;23;20049;-77
2023/02/01 08:27:33;;;;;;;4.95;1.40;;;8.60;85.20;;;;;;6106450;23;20040;-78
2023/02/01 08:29:59;;;;;;;4.65;1.48;;;8.60;85.20;;;;;;6105401;23;20092;-78
2023/02/01 08:32:25;;;;;;;5.80;1.60;;;8.60;85.30;;;;;;6104886;23;20002;-81
2023/02/01 08:34:50;;;;;;;5.75;1.88;;;8.60;85.30;;;;;;6104190;23;19998;-79
2023/02/01 08:37:16;;;;;;;5.95;1.50;;;8.60;85.30;;;;;;6105058;23;20013;-81
2023/02/01 08:39:43;;;;;;;5.28;1.30;;;8.60;85.30;;;;;;6103398;23;20041;-80
2023/02/01 08:44:52;;;;;;;5.07;1.30;;;8.60;85.30;;;;;;6130291;23;20021;-81
2023/02/01 08:47:18;;;;;;;5.38;1.25;;;8.60;85.30;;;;;;6102997;23;20006;-78
2023/02/01 08:49:43;;;;;;;5.63;1.75;;;8.60;85.30;;;;;;6105312;23;20049;-79
2023/02/01 08:52:09;;;;;;;4.75;1.40;;;8.60;85.20;;;;;;6105660;23;20002;-81
2023/02/01 08:54:34;;;;;;;6.40;1.80;;;8.60;85.20;;;;;;6104258;23;20005;-78
2023/02/01 08:57:00;;;;;;;9.15;1.85;;;8.70;85.20;;;;;;6102136;23;20086;-78
2023/02/01 08:59:25;;;;;;;6.00;1.50;;;8.70;85.10;;;;;;6103427;23;20053;-81
2023/02/01 09:01:51;;;;;;;6.20;1.60;;;8.70;85.10;;;;;;6102762;23;20006;-78
2023/02/01 09:04:17;;;;;;;5.10;1.55;;;8.70;84.90;;;;;;6129844;23;20115;-79
2023/02/01 09:06:42;;;;;;;6.72;1.42;;;8.70;84.90;;;;;;6101892;23;20437;-78
2023/02/01 09:09:08;;;;;;;4.38;1.40;;;8.80;84.80;;;;;;6102289;23;20006;-79
2023/02/01 09:11:33;;;;;;;5.10;1.48;;;8.80;84.70;;;;;;6185573;22;20056;-79
2023/02/01 09:13:59;;;;;;;4.72;1.73;;;8.80;84.60;;;;;;6251717;23;20000;-78
2023/02/01 09:16:24;;;;;;;4.75;1.40;;;8.90;84.50;;;;;;6250699;23;20003;-80
2023/02/01 09:18:50;;;;;;;5.55;1.40;;;8.90;84.40;;;;;;6249841;23;20008;-79
2023/02/01 09:21:17;;;;;;;6.30;1.70;;;8.90;84.30;;;;;;6250019;22;20034;-78
2023/02/01 09:23:42;;;;;;;5.53;1.50;;;8.90;84.30;;;;;;6249316;23;20004;-79
2023/02/01 09:26:08;;;;;;;6.82;1.70;;;8.90;84.30;;;;;;6252291;22;20007;-78
2023/02/01 09:28:34;;;;;;;6.05;1.70;;;8.80;84.30;;;;;;6249941;23;20008;-79
2023/02/01 09:31:01;;;;;;;5.65;1.58;;;8.80;84.50;;;;;;6249034;22;20328;-80
2023/02/01 09:33:28;;;;;;;5.82;1.50;;;8.80;84.50;;;;;;6248964;23;20004;-79
2023/02/01 09:36:02;;;;;;;6.05;1.50;;;8.80;84.60;;;;;;6249929;23;20385;-82
2023/02/01 09:38:28;;;;;;;5.68;1.50;;;8.80;84.70;;;;;;6248959;23;20369;-80
2023/02/01 09:40:55;;;;;;;5.65;1.50;;;8.70;84.70;;;;;;6249283;22;20019;-80
2023/02/01 09:43:46;;;;;;;6.63;1.75;;;8.80;84.80;;;;;;6249834;23;20382;-78
2023/02/01 09:46:31;;;;;;;5.18;1.52;;;8.70;84.80;;;;;;6247175;23;20030;-82
2023/02/01 09:49:00;;;;;;;8.80;2.08;;;8.70;84.80;;;;;;6248280;23;20004;-78
2023/02/01 09:51:32;;;;;;;12.75;1.75;;;8.80;84.90;;;;;;6250661;22;20000;-78
2023/02/01 09:54:09;;;;;;;4.90;1.50;;;8.70;84.80;;;;;;6251534;22;20040;-80
2023/02/01 09:56:47;;;;;;;5.75;1.50;;;8.70;84.80;;;;;;6223700;23;20019;-78
2023/02/01 09:59:37;;;;;;;6.10;1.60;;;8.80;84.80;;;;;;6249258;23;20001;-80
2023/02/01 10:02:04;;;;;;;3.92;1.40;;;8.80;84.80;;;;;;6249322;22;20000;-78
2023/02/01 10:04:30;;;;;;;5.20;1.50;;;8.80;84.70;;;;;;6248127;23;20084;-80
2023/02/01 10:07:15;;;;;;;6.50;1.58;;;8.80;84.60;;;;;;6247898;23;20000;-78
2023/02/01 10:10:16;;;;;;;5.07;1.48;;;8.80;84.60;;;;;;6249406;23;20022;-80
2023/02/01 10:15:43;;;;;;;5.05;1.40;;;8.80;84.60;;;;;;6121170;22;20026;-80
2023/02/01 10:18:37;;;;;;;5.70;1.70;;;8.70;84.60;;;;;;6097506;23;20325;-80
2023/02/01 10:21:14;;;;;;;6.80;1.67;;;8.80;84.70;;;;;;6096763;23;19998;-80
2023/02/01 10:24:02;;;;;;;4.05;1.40;;;8.80;84.70;;;;;;6097139;23;20002;-80
2023/02/01 10:26:36;;;;;;;3.88;1.27;;;8.80;84.80;;;;;;6096749;23;20006;-80
2023/02/01 10:29:04;;;;;;;4.13;1.25;;;8.80;84.80;;;;;;6096547;23;20085;-80
2023/02/01 10:31:34;;;;;;;5.82;1.50;;;9.00;84.90;;;;;;6096588;23;20383;-80
2023/02/01 10:34:27;;;;;;;4.18;1.40;;;9.00;85.00;;;;;;6096463;23;20049;-80
2023/02/01 10:37:00;;;;;;;5.90;1.83;;;8.80;84.90;;;;;;6096401;23;20006;-80
2023/02/01 10:39:26;;;;;;;4.28;1.20;;;8.70;84.80;;;;;;6096539;23;20002;-82
2023/02/01 10:41:53;;;;;;;3.95;1.27;;;8.70;84.80;;;;;;6096909;23;20316;-80
2023/02/01 10:44:26;;;;;;;5.53;1.77;;;8.70;84.80;;;;;;6096434;23;20059;-80
2023/02/01 10:46:52;;;;;;;4.47;1.27;;;7.60;84.20;;;;;;6096232;23;20337;-80
2023/02/01 10:49:33;;;;;;;4.78;1.77;;;8.70;84.80;;;;;;6096624;23;20006;-80
2023/02/01 10:52:12;;;;;;;4.32;1.23;;;8.80;84.80;;;;;;6096486;23;20093;-80
2023/02/01 10:54:39;;;;;;;4.32;1.25;;;8.70;84.80;;;;;;6097345;23;20013;-79
2023/02/01 10:57:25;;;;;;;4.28;1.30;;;8.80;84.80;;;;;;6096581;23;20009;-80
2023/02/01 10:59:51;;;;;;;5.15;1.30;;;8.70;84.70;;;;;;6096324;23;20006;-80
2023/02/01 11:05:48;;;;;;;5.97;1.20;;;8.70;84.80;;;;;;6118920;22;20109;-79
2023/02/01 11:08:18;;;;;;;5.50;1.58;;;9.10;85.10;;;;;;6096242;23;20016;-80
2023/02/01 11:10:44;;;;;;;7.30;1.65;;;8.60;84.80;;;;;;6096106;23;20093;-80
2023/02/01 11:13:18;;;;;;;5.00;1.63;;;8.90;85.00;;;;;;6096024;23;20033;-78
2023/02/01 11:15:54;;;;;;;5.05;1.30;;;8.70;84.90;;;;;;6096294;23;20378;-80
2023/02/01 11:18:27;;;;;;;5.10;1.40;;;8.80;85.00;;;;;;6096598;23;20034;-81
2023/02/01 11:20:54;;;;;;;6.32;1.58;;;8.70;84.90;;;;;;6096342;23;20006;-78
2023/02/01 11:23:24;;;;;;;5.20;1.40;;;8.80;85.00;;;;;;6096618;23;20330;-79
2023/02/01 11:25:51;;;;;;;7.05;1.60;;;8.80;85.00;;;;;;6097271;23;20010;-80
2023/02/01 11:28:18;;;;;;;5.90;1.70;;;8.60;84.90;;;;;;6097327;23;20014;-81
2023/02/01 11:30:46;;;;;;;5.82;1.38;;;8.70;85.00;;;;;;6097578;23;20014;-78
2023/02/01 11:33:24;;;;;;;5.68;1.55;;;8.70;85.00;;;;;;6097492;23;20340;-79
2023/02/01 11:35:51;;;;;;;4.00;1.42;;;8.90;85.10;;;;;;6097556;23;20002;-78
2023/02/01 11:38:29;;;;;;;5.07;1.50;;;8.70;85.00;;;;;;6097508;23;20006;-79
2023/02/01 11:41:11;;;;;;;4.75;1.40;;;8.80;85.10;;;;;;6097767;23;20013;-79
2023/02/01 11:46:24;;;;;;;5.28;1.20;;;8.70;85.10;;;;;;6120348;22;20030;-79
2023/02/01 11:48:50;;;;;;;3.67;1.30;;;8.60;85.00;;;;;;6097280;23;20013;-79
2023/02/01 11:51:28;;;;;;;5.35;1.70;;;8.70;85.10;;;;;;6097206;23;20010;-79
2023/02/01 11:53:57;;;;;;;5.55;1.40;;;8.80;85.20;;;;;;6123139;23;20444;-81
2023/02/01 11:56:30;;;;;;;5.45;1.30;;;8.70;85.10;;;;;;6097382;23;20132;-79
2023/02/01 11:59:10;;;;;;;3.70;1.02;;;8.90;85.30;;;;;;6097590;23;20013;-81
2023/02/01 12:02:17;;;;;;;3.93;1.17;;;8.90;85.30;;;;;;6097878;23;20454;-80
2023/02/01 12:05:15;;;;;;;6.15;2.00;;;8.80;85.30;;;;;;6122608;23;20013;-79
2023/02/01 12:08:08;;;;;;;4.28;1.20;;;8.80;85.30;;;;;;6097449;23;20088;-79
2023/02/01 12:10:39;;;;;;;5.18;1.48;;;8.80;85.30;;;;;;6097617;23;20013;-81
2023/02/01 12:13:35;;;;;;;4.55;1.42;;;8.70;85.30;;;;;;6097551;23;20006;-80
2023/02/01 12:16:31;;;;;;;5.53;1.40;;;9.10;85.50;;;;;;6098095;23;20006;-81
2023/02/01 12:19:08;;;;;;;4.40;1.40;;;8.90;85.40;;;;;;6097265;23;20009;-79
2023/02/01 12:21:56;;;;;;;4.95;1.40;;;8.80;85.40;;;;;;6097836;23;20009;-79
2023/02/01 12:24:49;;;;;;;3.78;1.20;;;8.80;85.30;;;;;;6097148;23;20006;-79
2023/02/01 12:27:37;;;;;;;5.57;1.30;;;8.70;85.30;;;;;;6097397;23;20013;-79
2023/02/01 12:30:34;;;;;;;5.10;1.60;;;9.00;85.40;;;;;;6097213;23;20020;-79
2023/02/01 12:35:57;;;;;;;;;;;8.70;85.20;;;;;;6122700;22;20443;-79
2023/02/01 12:38:38;;;;;;;4.90;1.23;;;8.90;85.30;;;;;;6097608;23;19943;-79
2023/02/01 12:41:25;;;;;;;4.03;1.10;;;8.70;85.20;;;;;;6096960;23;19998;-79
2023/02/01 12:46:49;;;;;;;5.72;1.30;;;8.70;85.30;;;;;;6277852;22;20023;-81
2023/02/01 12:49:25;;;;;;;4.88;1.23;;;8.80;85.80;;;;;;6250830;22;20007;-80
2023/02/01 12:51:55;;;;;;;5.35;1.23;;;8.70;85.30;;;;;;6250831;22;20099;-81
2023/02/01 12:54:41;;;;;;;3.42;1.10;;;8.80;85.40;;;;;;6250525;22;20000;-79
2023/02/01 12:57:16;;;;;;;4.22;1.38;;;8.70;85.40;;;;;;6250721;22;20058;-79
2023/02/01 12:59:51;;;;;;;4.82;1.40;;;8.90;85.50;;;;;;6250709;22;20389;-79
2023/02/01 13:02:46;;;;;;;3.30;1.10;;;8.70;85.40;;;;;;6250364;22;19995;-78
2023/02/01 13:05:19;;;;;;;3.78;1.15;;;8.60;85.40;;;;;;6250740;22;20049;-79
2023/02/01 13:07:53;;;;;;;3.58;1.10;;;8.90;85.60;;;;;;6250768;22;20186;-81
2023/02/01 13:10:36;;;;;;;5.10;1.58;;;8.70;85.50;;;;;;6250401;22;20012;-79
2023/02/01 13:13:17;;;;;;;4.35;1.30;;;8.70;85.50;;;;;;6250510;22;20004;-81
2023/02/01 13:15:45;;;;;;;4.43;1.25;;;8.80;85.50;;;;;;6250453;22;20000;-79
2023/02/01 13:18:17;;;;;;;3.75;1.38;;;8.80;85.50;;;;;;6250475;22;19996;-79
2023/02/01 13:21:02;;;;;;;4.88;1.33;;;9.10;85.70;;;;;;6250484;22;20007;-81
2023/02/01 13:23:31;;;;;;;3.47;1.27;;;8.80;85.60;;;;;;6250067;22;20076;-78
2023/02/01 13:25:58;;;;;;;5.28;1.50;;;8.70;85.60;;;;;;6250240;22;20338;-79
2023/02/01 13:28:46;;;;;;;5.85;1.30;;;8.70;85.60;;;;;;6250639;22;20003;-79
2023/02/01 13:31:33;;;;;;;3.30;1.30;;;8.70;85.70;;;;;;6250111;22;20004;-79
2023/02/01 13:34:42;;;;;;;3.50;1.30;;;8.70;85.60;;;;;;6250100;22;20427;-79
2023/02/01 13:37:28;;;;;;;;;;;8.60;85.60;;;;;;6250676;22;19996;-79
2023/02/01 13:40:20;;;;;;;3.88;1.40;;;8.80;85.60;;;;;;6250816;22;19899;-79
2023/02/01 13:42:59;;;;;;;5.22;1.70;;;8.70;85.60;;;;;;6250034;22;20011;-78
2023/02/01 13:45:29;;;;;;;4.40;1.30;;;9.10;85.80;;;;;;6244390;23;20016;-79
2023/02/01 13:48:01;;;;;;;4.60;1.00;;;8.80;85.60;;;;;;6245482;23;20007;-81
2023/02/01 13:50:37;;;;;;;4.82;1.60;;;8.70;85.50;;;;;;6244975;23;20011;-79
2023/02/01 13:53:11;;;;;;;6.65;1.65;;;8.70;85.50;;;;;;6244909;23;20000;-79
2023/02/01 13:55:57;;;;;;;3.78;1.15;;;8.70;85.50;;;;;;6244961;23;20043;-78
2023/02/01 13:58:33;;;;;;;4.57;1.40;;;9.60;86.00;;;;;;6245555;23;20415;-79
2023/02/01 14:01:21;;;;;;;4.50;1.45;;;8.70;85.60;;;;;;6245083;23;20430;-79